Time;durP1;ratioP1;P1;durP2;ratioP2;P2;SDS_P1;SDS_P2;PMS_P1;PMS_P2;Temp;Humidity;BMP_temperature;BMP_pressure;BME280_temperature;BME280_humidity;BME280_pressure;Samples;Min_cycle;Max_cycle;Signal;HPM_P1;HPM_P2
2021/12/13 00:01:03;;;;;;;;;33.00;25.00;;;;;10.74;76.45;101928.72;5056700;28;45367;-62
2021/12/13 00:03:53;;;;;;;;;30.50;26.75;;;;;10.74;75.92;101933.13;5039374;28;45379;-63
2021/12/13 00:06:22;;;;;;;;;33.75;26.25;;;;;10.73;76.59;101929.66;5056601;28;45573;-62
2021/12/13 00:08:49;;;;;;;;;31.25;25.25;;;;;10.73;76.39;101920.94;5056587;28;47205;-62
2021/12/13 00:11:26;;;;;;;;;30.50;24.25;;;;;10.73;76.06;101927.03;5038700;28;45480;-61
2021/12/13 00:13:58;;;;;;;;;26.00;25.25;;;;;10.75;75.93;101926.94;5055986;28;45355;-63
2021/12/13 00:16:34;;;;;;;;;27.75;24.00;;;;;10.73;75.85;101926.19;5022515;28;46264;-61
2021/12/13 00:19:07;;;;;;;;;30.75;24.25;;;;;10.73;76.03;101920.94;5056595;28;45180;-62
2021/12/13 00:21:46;;;;;;;;;31.00;25.50;;;;;10.72;75.97;101909.56;5039507;28;45419;-61
2021/12/13 00:24:21;;;;;;;;;26.00;23.25;;;;;10.72;76.20;101908.75;5038446;28;45308;-61
2021/12/13 00:26:48;;;;;;;;;23.00;18.75;;;;;10.71;76.27;101907.88;5038309;28;46611;-61
2021/12/13 00:29:16;;;;;;;;;29.00;27.00;;;;;10.72;75.96;101912.19;5038314;28;45863;-62
2021/12/13 00:31:57;;;;;;;;;23.25;22.00;;;;;10.70;76.22;101908.81;5038513;28;45278;-62
2021/12/13 00:34:53;;;;;;;;;28.75;23.50;;;;;10.69;76.03;101901.88;5056405;28;45336;-61
2021/12/13 00:37:37;;;;;;;;;28.50;23.75;;;;;10.71;75.93;101909.69;5055220;28;48118;-62
2021/12/13 00:40:14;;;;;;;;;21.00;20.00;;;;;10.67;76.16;101907.25;5039401;28;45397;-62
2021/12/13 00:42:43;;;;;;;;;32.25;25.50;;;;;10.67;76.29;101906.41;5056399;28;45303;-62
2021/12/13 00:45:11;;;;;;;;;24.25;22.00;;;;;10.66;76.18;101904.72;5056254;28;45510;-62
2021/12/13 00:47:37;;;;;;;;;27.50;23.50;;;;;10.66;76.40;101908.19;5038162;28;45394;-62
2021/12/13 00:50:06;;;;;;;;;24.75;22.25;;;;;10.68;76.49;101902.81;5056091;28;45316;-61
2021/12/13 00:52:31;;;;;;;;;28.50;24.50;;;;;10.69;76.08;101904.50;5056248;28;45311;-62
2021/12/13 00:54:57;;;;;;;;;31.50;26.00;;;;;10.70;76.09;101903.56;5037728;28;45369;-61
2021/12/13 00:57:40;;;;;;;;;34.25;28.00;;;;;10.69;76.01;101909.78;5020436;28;72363;-62
2021/12/13 01:00:15;;;;;;;;;29.50;24.50;;;;;10.67;76.34;101903.78;5038307;28;45357;-61
2021/12/13 01:02:47;;;;;;;;;27.75;23.25;;;;;10.67;76.34;101909.03;5056143;28;45396;-62
2021/12/13 01:05:34;;;;;;;;;23.75;22.25;;;;;10.66;75.87;101907.34;5038025;28;45415;-62
2021/12/13 01:08:11;;;;;;;;;27.25;23.00;;;;;10.64;76.41;101907.47;5044774;28;46551;-61
2021/12/13 01:10:55;;;;;;;;;26.25;24.25;;;;;10.64;76.31;101903.97;5055821;28;45829;-61
2021/12/13 01:13:24;;;;;;;;;24.00;21.50;;;;;10.61;75.97;101907.66;5056053;28;45419;-61
2021/12/13 01:19:23;;;;;;;;;24.00;21.00;;;;;10.63;76.19;101910.19;5012168;28;46090;-61
2021/12/13 01:22:25;;;;;;;;;20.25;20.00;;;;;10.60;76.32;101910.41;5055533;28;45237;-61
2021/12/13 01:27:40;;;;;;;;;27.25;22.75;;;;;10.62;75.98;101905.88;5041800;28;45368;-62
2021/12/13 01:30:08;;;;;;;;;25.50;22.75;;;;;10.62;75.84;101905.88;5059090;28;45241;-62
2021/12/13 01:32:39;;;;;;;;;32.75;25.00;;;;;10.62;76.29;101900.59;5058958;28;45852;-62
2021/12/13 01:35:05;;;;;;;;;25.50;25.50;;;;;10.63;75.82;101904.91;5059283;28;45254;-62
2021/12/13 01:37:31;;;;;;;;;37.50;31.25;;;;;10.60;75.89;101905.16;5058984;28;45222;-62
2021/12/13 01:39:57;;;;;;;;;29.50;24.75;;;;;10.60;76.31;101905.97;5058273;28;45566;-62
2021/12/13 01:42:25;;;;;;;;;24.25;22.75;;;;;10.59;76.10;101900.84;5058886;28;45937;-62
2021/12/13 01:44:53;;;;;;;;;20.25;15.75;;;;;10.59;76.19;101904.28;5041005;28;45346;-61
2021/12/13 01:47:21;;;;;;;;;27.00;22.50;;;;;10.59;76.16;101906.09;5059031;28;45298;-62
2021/12/13 01:49:51;;;;;;;;;33.00;24.50;;;;;10.57;75.88;101900.09;5058616;28;46289;-61
2021/12/13 01:52:27;;;;;;;;;33.00;25.00;;;;;10.54;76.32;101898.50;5058693;28;45379;-61
2021/12/13 01:54:54;;;;;;;;;29.75;26.50;;;;;10.51;76.30;101899.56;5040882;28;45258;-62
2021/12/13 02:00:18;;;;;;;;;22.75;21.50;;;;;10.52;76.49;101910.91;5058711;28;46145;-62
2021/12/13 02:02:51;;;;;;;;;24.00;22.75;;;;;10.49;76.27;101911.09;5044676;28;45298;-62
2021/12/13 02:05:22;;;;;;;;;25.00;20.25;;;;;10.47;76.29;101905.97;5040876;28;45342;-62
2021/12/13 02:08:03;;;;;;;;;34.50;27.00;;;;;10.47;76.49;101907.72;5058671;28;45363;-62
2021/12/13 02:10:35;;;;;;;;;24.25;21.75;;;;;10.46;76.46;101911.31;5040617;28;45390;-62
2021/12/13 02:13:26;;;;;;;;;23.25;20.25;;;;;10.45;76.36;101910.47;5058404;28;45203;-62
2021/12/13 02:18:39;;;;;;;;;29.75;22.50;;;;;10.44;76.88;101915.81;5058450;28;45367;-61
2021/12/13 02:21:10;;;;;;;;;26.00;21.00;;;;;10.43;77.04;101915.00;5023766;28;45401;-61
2021/12/13 02:23:39;;;;;;;;;24.25;23.25;;;;;10.43;76.23;101919.38;5058467;28;45320;-61
2021/12/13 02:26:04;;;;;;;;;31.75;24.75;;;;;10.42;76.50;101909.81;5058200;28;45443;-62
2021/12/13 02:28:32;;;;;;;;;28.50;24.00;;;;;10.41;76.60;101916.00;5057367;28;66281;-62
2021/12/13 02:31:02;;;;;;;;;26.00;21.50;;;;;10.38;76.89;101919.66;5058147;28;46113;-62
2021/12/13 02:33:39;;;;;;;;;26.75;23.00;;;;;10.38;76.68;101907.34;5058226;28;45466;-61
2021/12/13 02:36:13;;;;;;;;;27.25;20.50;;;;;10.37;76.96;101913.56;5024709;28;45346;-63
2021/12/13 02:38:40;;;;;;;;;21.75;19.25;;;;;10.36;76.69;101916.31;5058073;28;45372;-61
2021/12/13 02:41:06;;;;;;;;;29.25;24.75;;;;;10.36;76.98;101904.00;5039967;28;45213;-63
2021/12/13 02:43:35;;;;;;;;;24.50;20.00;;;;;10.35;76.92;101909.34;5057973;28;45366;-62
2021/12/13 02:46:00;;;;;;;;;24.50;21.75;;;;;10.34;77.02;101919.00;5039932;28;45429;-62
2021/12/13 02:48:31;;;;;;;;;25.75;23.25;;;;;10.33;77.06;101919.13;5040022;28;45574;-61
2021/12/13 02:51:01;;;;;;;;;26.75;24.00;;;;;10.32;76.93;101913.03;5057646;28;46158;-61
2021/12/13 02:53:34;;;;;;;;;28.25;21.00;;;;;10.32;76.78;101906.94;5057652;28;46232;-61
2021/12/13 02:56:00;;;;;;;;;27.75;22.25;;;;;10.30;77.17;101912.31;5039886;28;45364;-62
2021/12/13 02:58:26;;;;;;;;;25.75;21.25;;;;;10.29;76.90;101910.63;5039748;28;45345;-62
2021/12/13 03:01:05;;;;;;;;;26.75;24.50;;;;;10.30;77.17;101904.41;5057629;28;45340;-62
2021/12/13 03:03:33;;;;;;;;;28.50;21.75;;;;;10.30;76.83;101903.56;5057578;28;45385;-61
2021/12/13 03:06:00;;;;;;;;;28.75;21.00;;;;;10.30;76.98;101908.81;5057649;28;45280;-62
2021/12/13 03:08:40;;;;;;;;;25.00;20.75;;;;;10.30;76.94;101900.94;5057501;28;45498;-61
2021/12/13 03:11:21;;;;;;;;;25.25;22.25;;;;;10.29;77.36;101902.72;5057299;28;46202;-61
2021/12/13 03:13:47;;;;;;;;;18.50;17.00;;;;;10.30;76.79;101903.56;5057466;28;45863;-61
2021/12/13 03:16:16;;;;;;;;;24.75;19.25;;;;;10.30;77.08;101909.66;5057050;28;52617;-62
2021/12/13 03:18:46;;;;;;;;;21.75;21.00;;;;;10.31;77.29;101907.88;5039536;28;45555;-62
2021/12/13 03:21:46;;;;;;;;;24.75;20.50;;;;;10.31;77.19;101900.84;5038972;28;46121;-61
2021/12/13 03:24:46;;;;;;;;;27.00;20.25;;;;;10.31;76.95;101902.63;5039208;28;45239;-61
2021/12/13 03:27:45;;;;;;;;;29.25;25.00;;;;;10.31;76.76;101905.25;5057188;28;45348;-62
2021/12/13 03:30:23;;;;;;;;;21.75;19.50;;;;;10.30;77.04;101907.03;5042051;28;45451;-61
2021/12/13 03:32:54;;;;;;;;;19.75;19.25;;;;;10.29;77.05;101910.63;5056806;28;49865;-62
2021/12/13 03:35:27;;;;;;;;;25.50;19.00;;;;;10.28;76.85;101903.69;5056966;28;45893;-62
2021/12/13 03:37:58;;;;;;;;;27.50;21.00;;;;;10.30;76.92;101904.41;5057002;28;45436;-63
2021/12/13 03:40:23;;;;;;;;;22.50;20.25;;;;;10.30;76.78;101898.31;5057009;28;45277;-62
2021/12/13 03:42:53;;;;;;;;;20.50;17.00;;;;;10.29;77.08;101904.50;5055944;28;69642;-61
2021/12/13 03:45:23;;;;;;;;;22.25;17.75;;;;;10.27;76.78;101898.50;5038934;28;46075;-62
2021/12/13 03:47:51;;;;;;;;;23.50;18.25;;;;;10.27;77.09;101894.09;5038623;28;45359;-61
2021/12/13 03:50:41;;;;;;;;;21.50;17.75;;;;;10.27;76.98;101893.25;5057051;28;45550;-61
2021/12/13 03:53:17;;;;;;;;;21.25;18.75;;;;;10.25;77.01;101893.38;5056755;28;49968;-62
2021/12/13 03:55:45;;;;;;;;;24.50;19.00;;;;;10.23;77.00;101892.63;5056786;28;45368;-61
2021/12/13 03:58:11;;;;;;;;;20.50;16.50;;;;;10.23;77.24;101896.06;5056797;28;45391;-62
2021/12/13 04:00:43;;;;;;;;;17.75;16.50;;;;;10.24;77.25;101889.06;5056447;28;46205;-63
2021/12/13 04:03:10;;;;;;;;;23.50;18.00;;;;;10.23;76.79;101885.56;5056451;28;46473;-61
2021/12/13 04:05:38;;;;;;;;;21.75;16.50;;;;;10.22;76.86;101877.81;5056761;28;45375;-61
2021/12/13 04:08:05;;;;;;;;;18.25;17.50;;;;;10.20;76.87;101883.16;5022239;28;45355;-62
2021/12/13 04:10:39;;;;;;;;;23.25;18.00;;;;;10.20;77.22;101880.50;5056465;28;47295;-61
2021/12/13 04:13:11;;;;;;;;;21.50;17.50;;;;;10.21;76.95;101876.13;5038864;28;47433;-61
2021/12/13 04:16:02;;;;;;;;;20.00;15.50;;;;;10.20;76.94;101877.88;5056645;28;45957;-62
2021/12/13 04:19:06;;;;;;;;;18.50;16.75;;;;;10.22;77.11;101885.69;5056459;28;45331;-61
2021/12/13 04:21:21;;;;;;;;;18.25;16.25;;;;;10.24;77.08;101883.81;5041013;28;45479;-61
2021/12/13 04:23:51;;;;;;;;;18.25;16.50;;;;;10.24;77.13;101889.06;5056272;28;46275;-62
2021/12/13 04:26:17;;;;;;;;;16.50;15.50;;;;;10.24;76.83;101882.00;5056072;28;45427;-61
2021/12/13 04:28:45;;;;;;;;;18.25;16.00;;;;;10.25;76.73;101886.31;5055589;28;59680;-62
2021/12/13 04:31:14;;;;;;;;;15.25;14.25;;;;;10.26;77.06;101887.16;5056253;28;45551;-61
2021/12/13 04:33:42;;;;;;;;;20.00;17.00;;;;;10.28;76.79;101889.69;5056132;28;46347;-61
2021/12/13 04:36:26;;;;;;;;;18.25;15.75;;;;;10.28;76.96;101887.06;5038429;28;45294;-62
2021/12/13 04:38:59;;;;;;;;;19.50;16.00;;;;;10.28;76.93;101884.44;5040741;28;45375;-61
2021/12/13 04:41:43;;;;;;;;;18.25;15.50;;;;;10.30;76.73;101888.66;5056334;28;45400;-62
2021/12/13 04:44:13;;;;;;;;;20.00;17.75;;;;;10.30;76.83;101890.44;5055970;28;46242;-62
2021/12/13 04:46:39;;;;;;;;;19.00;14.75;;;;;10.28;76.51;101897.56;5037902;28;45423;-61
2021/12/13 04:49:07;;;;;;;;;17.25;14.00;;;;;10.29;76.36;101889.59;5056219;28;45194;-62
2021/12/13 04:52:00;;;;;;;;;17.00;15.75;;;;;10.31;76.15;101889.47;5038107;28;45539;-61
2021/12/13 04:54:27;;;;;;;;;18.50;16.75;;;;;10.28;76.46;101901.03;5054092;28;46909;-61
2021/12/13 04:56:53;;;;;;;;;21.75;15.25;;;;;10.30;76.05;101903.56;5055929;28;45858;-62
2021/12/13 04:59:18;;;;;;;;;19.25;13.25;;;;;10.30;76.26;101907.03;5056946;28;45323;-62
2021/12/13 05:01:50;;;;;;;;;17.25;16.50;;;;;10.29;76.13;101904.50;5059608;28;45359;-62
2021/12/13 05:04:15;;;;;;;;;17.50;16.50;;;;;10.27;76.35;101909.00;5041634;28;46081;-62
2021/12/13 05:06:41;;;;;;;;;18.50;15.75;;;;;10.27;76.19;101904.63;5059331;28;45306;-61
2021/12/13 05:09:10;;;;;;;;;15.75;13.50;;;;;10.28;76.34;101902.81;5041617;28;45844;-63
2021/12/13 05:11:41;;;;;;;;;17.25;14.75;;;;;10.28;75.99;101910.69;5059386;28;45419;-61
2021/12/13 05:14:06;;;;;;;;;20.00;14.50;;;;;10.28;75.98;101911.56;5024623;28;46381;-62
2021/12/13 05:16:48;;;;;;;;;19.25;17.00;;;;;10.30;76.01;101912.31;5041165;28;45749;-61
2021/12/13 05:19:15;;;;;;;;;21.00;16.75;;;;;10.31;75.90;101906.09;5041272;28;45333;-61
2021/12/13 05:21:46;;;;;;;;;19.00;17.75;;;;;10.31;75.91;101913.13;5057899;28;45225;-62
2021/12/13 05:24:17;;;;;;;;;19.00;16.25;;;;;10.32;76.20;101906.94;5059192;28;46581;-61
2021/12/13 05:26:59;;;;;;;;;22.50;19.25;;;;;10.34;75.40;101894.53;5058910;28;45265;-61
2021/12/13 05:29:32;;;;;;;;;18.75;16.50;;;;;10.31;75.77;101911.34;5041840;28;45309;-60
2021/12/13 05:32:07;;;;;;;;;12.75;10.00;;;;;10.31;75.43;101911.34;5059142;28;45413;-62
2021/12/13 05:34:36;;;;;;;;;15.00;11.00;;;;;10.34;75.39;101918.19;5059019;28;45358;-61
2021/12/13 05:37:02;;;;;;;;;19.75;17.00;;;;;10.32;75.75;101922.69;5058152;28;48495;-62
2021/12/13 05:39:27;;;;;;;;;17.50;16.50;;;;;10.30;75.20;101916.69;5059051;28;45439;-62
2021/12/13 05:42:00;;;;;;;;;18.75;16.00;;;;;10.29;75.33;101907.13;5039915;28;65091;-61
2021/12/13 05:44:28;;;;;;;;;18.00;11.00;;;;;10.29;75.52;101917.63;5041003;28;46219;-61
2021/12/13 05:46:54;;;;;;;;;15.75;13.25;;;;;10.29;75.08;101920.25;5058702;28;45927;-63
2021/12/13 05:49:28;;;;;;;;;17.50;16.50;;;;;10.27;75.41;101920.38;5058696;28;45322;-63
2021/12/13 05:52:05;;;;;;;;;20.25;17.00;;;;;10.28;74.92;101923.84;5023631;28;45502;-63
2021/12/13 05:54:33;;;;;;;;;17.75;14.25;;;;;10.26;75.20;101921.31;5057362;28;46146;-61
2021/12/13 05:57:17;;;;;;;;;24.25;15.75;;;;;10.25;74.96;101917.84;5058534;28;45356;-61
2021/12/13 05:59:51;;;;;;;;;19.75;16.25;;;;;10.23;75.24;101921.53;5058605;28;45312;-62
2021/12/13 06:02:17;;;;;;;;;19.25;17.75;;;;;10.22;75.15;101918.03;5058471;28;45308;-62
2021/12/13 06:04:45;;;;;;;;;18.50;15.00;;;;;10.23;74.99;101916.25;5058355;28;45422;-61
2021/12/13 06:07:19;;;;;;;;;18.25;17.25;;;;;10.20;75.11;101914.66;5058199;28;45812;-61
2021/12/13 06:09:48;;;;;;;;;19.00;16.25;;;;;10.20;74.97;101914.66;5058588;28;45470;-61
2021/12/13 06:12:24;;;;;;;;;19.25;17.50;;;;;10.19;74.99;101909.53;5057466;28;45352;-62
2021/12/13 06:14:50;;;;;;;;;22.00;17.75;;;;;10.19;74.87;101910.34;5058281;28;45598;-62
2021/12/13 06:17:26;;;;;;;;;19.50;17.25;;;;;10.18;74.96;101910.47;5023628;28;45345;-62
2021/12/13 06:19:56;;;;;;;;;19.25;15.00;;;;;10.17;74.87;101925.38;5058318;28;45334;-61
2021/12/13 06:22:22;;;;;;;;;18.00;16.75;;;;;10.13;75.15;101918.63;5040276;28;45500;-62
2021/12/13 06:24:50;;;;;;;;;22.25;18.25;;;;;10.12;75.02;101916.09;5057713;28;47357;-62
2021/12/13 06:27:20;;;;;;;;;18.00;17.50;;;;;10.10;75.26;101916.19;5058246;28;45493;-61
2021/12/13 06:29:47;;;;;;;;;18.50;17.50;;;;;10.09;75.15;101915.38;5058167;28;45351;-63
2021/12/13 06:32:26;;;;;;;;;22.50;19.50;;;;;10.10;75.03;101916.19;5057966;28;45530;-61
2021/12/13 06:34:51;;;;;;;;;21.75;19.25;;;;;10.11;75.19;101917.88;5057746;28;46236;-61
2021/12/13 06:37:30;;;;;;;;;18.75;17.25;;;;;10.09;75.10;101917.13;5039795;28;52411;-61
2021/12/13 06:40:26;;;;;;;;;16.75;16.75;;;;;10.09;74.75;101931.13;5058170;28;45215;-62
2021/12/13 06:42:52;;;;;;;;;19.25;18.00;;;;;10.10;74.70;101926.69;5058088;28;45404;-61
2021/12/13 06:45:25;;;;;;;;;19.25;15.75;;;;;10.09;74.77;101922.38;5057613;28;46672;-61
2021/12/13 06:47:51;;;;;;;;;17.75;14.00;;;;;10.07;74.86;101930.38;5057886;28;45879;-60
2021/12/13 06:50:27;;;;;;;;;13.25;12.00;;;;;10.07;74.65;101932.16;5057868;28;45271;-61
2021/12/13 06:52:52;;;;;;;;;17.25;15.25;;;;;10.04;74.49;101932.38;5057995;28;45293;-62
2021/12/13 06:55:19;;;;;;;;;20.00;14.25;;;;;10.02;74.80;101934.25;5006292;28;46153;-61
2021/12/13 06:57:50;;;;;;;;;19.50;16.00;;;;;10.00;74.67;101930.88;5057521;28;45927;-62
2021/12/13 07:00:22;;;;;;;;;21.50;14.25;;;;;10.02;74.59;101932.44;5057807;28;45217;-61
2021/12/13 07:03:00;;;;;;;;;15.75;13.75;;;;;10.00;74.90;101923.81;5057668;28;45408;-62
2021/12/13 07:05:33;;;;;;;;;13.75;13.50;;;;;10.01;74.57;101932.56;5057514;28;45439;-62
2021/12/13 07:08:06;;;;;;;;;16.25;12.75;;;;;10.00;74.74;101930.88;5057257;28;45847;-61
2021/12/13 07:11:05;;;;;;;;;18.50;14.75;;;;;9.99;74.91;101929.19;5039496;28;45389;-62
2021/12/13 07:13:48;;;;;;;;;22.25;18.00;;;;;10.00;74.88;101930.88;5041946;28;45203;-61
2021/12/13 07:16:26;;;;;;;;;16.00;14.50;;;;;9.99;74.87;101926.56;5023946;28;46589;-62
2021/12/13 07:18:53;;;;;;;;;17.25;15.00;;;;;9.99;74.96;101937.06;5057219;28;46017;-62
2021/12/13 07:21:28;;;;;;;;;12.00;11.75;;;;;9.99;74.79;101934.44;5057390;28;45466;-62
2021/12/13 07:23:54;;;;;;;;;21.00;14.00;;;;;9.98;74.66;101932.75;5057090;28;45346;-62
2021/12/13 07:26:40;;;;;;;;;16.75;13.75;;;;;9.97;74.90;101936.31;5056943;28;45319;-61
2021/12/13 07:29:19;;;;;;;;;16.50;14.75;;;;;9.93;74.92;101928.63;5057102;28;45791;-62
2021/12/13 07:31:45;;;;;;;;;17.25;13.00;;;;;9.96;74.74;101927.59;5023407;28;45270;-61
2021/12/13 07:34:18;;;;;;;;;16.00;13.00;;;;;9.94;75.12;101925.06;5022609;28;45636;-61
2021/12/13 07:36:52;;;;;;;;;14.50;12.75;;;;;9.94;74.77;101930.31;5038775;28;46376;-61
2021/12/13 07:39:17;;;;;;;;;15.75;11.00;;;;;9.92;74.86;101932.22;5039056;28;45428;-62
2021/12/13 07:41:51;;;;;;;;;15.50;12.25;;;;;9.90;74.58;101925.34;5056334;28;62956;-62
2021/12/13 07:44:34;;;;;;;;;13.25;12.25;;;;;9.89;74.97;101926.28;5057089;28;45486;-61
2021/12/13 07:47:04;;;;;;;;;12.50;12.50;;;;;9.88;74.55;101928.09;5056705;28;46280;-61
2021/12/13 07:49:32;;;;;;;;;17.00;12.00;;;;;9.87;74.88;101941.28;5056897;28;45352;-62
2021/12/13 07:52:00;;;;;;;;;16.00;14.00;;;;;9.85;74.98;101941.41;5056961;28;45240;-62
2021/12/13 07:54:26;;;;;;;;;18.50;15.50;;;;;9.87;74.70;101939.53;5023111;28;45373;-62
2021/12/13 07:57:00;;;;;;;;;16.00;13.75;;;;;9.87;74.74;101942.16;5056611;28;46102;-62
2021/12/13 07:59:32;;;;;;;;;13.00;13.00;;;;;9.88;75.07;101942.97;5056683;28;45986;-61
2021/12/13 08:02:25;;;;;;;;;15.00;13.25;;;;;9.89;74.90;101936.78;5056795;28;45786;-62
2021/12/13 08:04:56;;;;;;;;;14.00;13.75;;;;;9.88;74.74;101945.59;5056779;28;45347;-62
2021/12/13 08:07:29;;;;;;;;;22.75;20.00;;;;;9.88;74.90;101935.97;5056636;28;45513;-62
2021/12/13 08:10:09;;;;;;;;;16.75;16.75;;;;;9.87;74.76;101926.41;5056644;28;45950;-62
2021/12/13 08:12:35;;;;;;;;;16.50;16.25;;;;;9.89;74.79;101931.53;5056515;28;46494;-61
2021/12/13 08:15:21;;;;;;;;;19.25;14.50;;;;;9.88;74.76;101935.97;5038767;28;45233;-61
2021/12/13 08:17:49;;;;;;;;;19.00;17.75;;;;;9.91;74.54;101938.41;5056628;28;46259;-62
2021/12/13 08:20:38;;;;;;;;;18.50;17.50;;;;;9.89;74.53;101948.16;5056537;28;45403;-61
2021/12/13 08:23:04;;;;;;;;;18.25;15.50;;;;;9.90;74.59;101951.59;5056452;28;45309;-62
2021/12/13 08:25:38;;;;;;;;;15.75;15.50;;;;;9.92;74.72;101941.84;5056231;28;45479;-61
2021/12/13 08:28:13;;;;;;;;;18.00;14.50;;;;;9.92;74.91;101942.72;5056271;28;45537;-62
2021/12/13 08:30:50;;;;;;;;;17.00;15.25;;;;;9.93;74.56;101943.53;5038490;28;45318;-62
2021/12/13 08:33:21;;;;;;;;;17.75;14.75;;;;;9.93;74.61;101944.41;5056196;28;45295;-62
2021/12/13 08:36:04;;;;;;;;;15.50;15.00;;;;;9.93;74.25;101944.41;5038858;28;45262;-61
2021/12/13 08:38:40;;;;;;;;;18.50;14.50;;;;;9.94;74.63;101946.06;5055643;28;46434;-61
2021/12/13 08:41:14;;;;;;;;;14.00;13.50;;;;;9.94;74.37;101951.34;5056034;28;45505;-61
2021/12/13 08:43:42;;;;;;;;;12.75;12.25;;;;;9.93;74.30;101954.91;5055970;28;45373;-62
2021/12/13 08:46:08;;;;;;;;;9.00;8.50;;;;;9.94;74.31;101961.84;5056199;28;45456;-63
2021/12/13 08:48:43;;;;;;;;;10.25;9.25;;;;;9.95;74.36;101966.16;5056090;28;45621;-62
2021/12/13 08:51:08;;;;;;;;;10.50;9.75;;;;;9.95;73.92;101958.28;5037484;28;45460;-62
2021/12/13 08:53:35;;;;;;;;;13.75;12.75;;;;;9.97;74.02;101959.97;5055334;28;64009;-63
2021/12/13 08:56:07;;;;;;;;;10.50;9.00;;;;;9.95;74.28;101950.41;5056249;28;45153;-62
2021/12/13 08:58:34;;;;;;;;;12.75;8.00;;;;;9.96;74.15;101959.09;5055810;28;45417;-61
2021/12/13 09:01:03;;;;;;;;;9.25;8.00;;;;;9.96;73.98;101964.34;5038024;28;45430;-61
2021/12/13 09:03:48;;;;;;;;;5.00;5.00;;;;;9.93;73.26;101965.41;5055898;28;45398;-61
2021/12/13 09:06:16;;;;;;;;;5.25;4.25;;;;;9.91;73.30;101971.66;5055925;28;45421;-61
2021/12/13 09:09:00;;;;;;;;;6.50;5.00;;;;;9.87;73.20;101968.41;5037245;28;48257;-63
2021/12/13 09:11:33;;;;;;;;;7.75;5.00;;;;;9.85;72.87;101966.78;5055718;28;45252;-63
2021/12/13 09:14:11;;;;;;;;;7.00;4.50;;;;;9.81;72.87;101966.16;5055113;28;45488;-63
2021/12/13 09:17:10;;;;;;;;;5.00;5.00;;;;;9.79;72.99;101968.03;5055779;28;45276;-61
2021/12/13 09:19:46;;;;;;;;;6.00;5.25;;;;;9.77;72.85;101976.03;5036319;28;47198;-60
2021/12/13 09:22:26;;;;;;;;;10.25;7.25;;;;;9.76;73.11;101976.09;5055785;28;45234;-61
2021/12/13 09:25:18;;;;;;;;;8.00;8.00;;;;;9.75;72.95;101974.41;5055660;28;45293;-60
2021/12/13 09:27:53;;;;;;;;;7.25;6.00;;;;;9.75;73.33;101977.03;5051179;28;45486;-61
2021/12/13 09:30:27;;;;;;;;;5.50;5.50;;;;;9.76;73.01;101973.47;5055540;28;45612;-62
2021/12/13 09:32:58;;;;;;;;;6.25;6.25;;;;;9.76;73.25;101974.34;5055714;28;45249;-61
2021/12/13 09:35:26;;;;;;;;;8.75;7.50;;;;;9.77;73.45;101973.41;5055749;28;45384;-61
2021/12/13 09:37:53;;;;;;;;;6.75;6.25;;;;;9.77;72.93;101975.16;5055589;28;45213;-60
2021/12/13 09:40:19;;;;;;;;;6.75;4.00;;;;;9.77;72.69;101977.78;5055446;28;45668;-61
2021/12/13 09:42:47;;;;;;;;;7.75;6.00;;;;;9.77;72.48;101980.41;5036996;28;45868;-61
2021/12/13 09:45:14;;;;;;;;;4.75;4.25;;;;;9.77;72.50;101983.91;5055202;28;45348;-61
2021/12/13 09:47:41;;;;;;;;;4.00;4.00;;;;;9.76;71.74;101973.47;5058325;28;45221;-61
2021/12/13 09:50:12;;;;;;;;;4.00;4.00;;;;;9.73;71.82;101973.66;5040604;28;46390;-61
2021/12/13 09:53:03;;;;;;;;;5.00;4.50;;;;;9.66;72.00;101967.97;5057836;28;45877;-60
2021/12/13 09:55:31;;;;;;;;;3.75;3.00;;;;;9.64;71.85;101978.53;5058223;28;45348;-60
2021/12/13 09:58:05;;;;;;;;;5.50;3.00;;;;;9.63;71.83;101976.03;5039283;28;45621;-61
2021/12/13 10:00:41;;;;;;;;;3.00;2.50;;;;;9.59;71.91;101982.41;5040653;28;46292;-60
2021/12/13 10:03:28;;;;;;;;;4.00;3.75;;;;;9.56;71.29;101972.09;5058356;28;45798;-60
2021/12/13 10:05:56;;;;;;;;;3.75;3.75;;;;;9.53;71.06;101978.38;5040579;28;45786;-62
2021/12/13 10:08:28;;;;;;;;;3.75;2.25;;;;;9.49;71.28;101977.69;5040676;28;45368;-62
2021/12/13 10:11:05;;;;;;;;;6.25;4.25;;;;;9.46;71.80;101977.88;5058670;28;46215;-62
2021/12/13 10:13:36;;;;;;;;;4.25;4.25;;;;;9.45;71.72;101981.44;5041037;28;45868;-62
2021/12/13 10:16:07;;;;;;;;;4.00;3.75;;;;;9.43;71.72;101978.06;5058586;28;45360;-62
2021/12/13 10:18:34;;;;;;;;;3.75;3.00;;;;;9.42;71.53;101975.56;5040339;28;45160;-62
2021/12/13 10:21:04;;;;;;;;;3.00;3.00;;;;;9.41;71.84;101981.75;5058143;28;51826;-62
2021/12/13 10:23:31;;;;;;;;;4.00;4.00;;;;;9.38;71.85;101974.88;5058481;28;45777;-62
2021/12/13 10:25:58;;;;;;;;;4.00;4.00;;;;;9.38;71.32;101968.81;5058114;28;45293;-63
2021/12/13 10:28:27;;;;;;;;;2.00;2.00;;;;;9.34;71.12;101971.59;5058355;28;45399;-62
2021/12/13 10:31:05;;;;;;;;;2.00;2.00;;;;;9.31;71.29;101971.78;5057983;28;46846;-62
2021/12/13 10:33:31;;;;;;;;;5.50;4.00;;;;;9.29;71.38;101960.53;5058110;28;45376;-63
2021/12/13 10:35:56;;;;;;;;;3.50;2.75;;;;;9.27;71.74;101961.59;5058152;28;45359;-62
2021/12/13 10:38:35;;;;;;;;;5.00;5.00;;;;;9.28;71.87;101963.25;5039231;28;65520;-62
2021/12/13 10:41:08;;;;;;;;;13.00;8.00;;;;;9.27;71.82;101957.19;5058060;28;45585;-62
2021/12/13 10:43:58;;;;;;;;;6.00;5.50;;;;;9.30;72.13;101956.13;5023578;28;45765;-62
2021/12/13 10:46:26;;;;;;;;;4.25;3.00;;;;;9.31;71.80;101958.69;5052732;28;45323;-62
2021/12/13 10:48:56;;;;;;;;;3.25;3.25;;;;;9.30;71.90;101957.00;5058198;28;45500;-63
2021/12/13 10:51:38;;;;;;;;;3.25;3.00;;;;;9.30;72.16;101956.13;5039712;28;47333;-62
2021/12/13 10:54:12;;;;;;;;;4.75;4.75;;;;;9.31;72.25;101957.81;5057874;28;45404;-62
2021/12/13 10:56:45;;;;;;;;;3.00;3.00;;;;;9.32;71.79;101955.13;5057469;28;45412;-62
2021/12/13 10:59:14;;;;;;;;;3.00;3.00;;;;;9.32;71.86;101954.25;5057843;28;45261;-62
2021/12/13 11:01:44;;;;;;;;;4.00;2.00;;;;;9.33;71.80;101953.31;5039740;28;46156;-62
2021/12/13 11:04:13;;;;;;;;;38.25;34.50;;;;;9.33;72.15;101959.44;5057712;28;45628;-62
2021/12/13 11:06:40;;;;;;;;;2.50;2.50;;;;;9.34;71.77;101957.63;5057833;28;45341;-63
2021/12/13 11:09:07;;;;;;;;;6.00;5.00;;;;;9.33;71.47;101958.56;5057705;28;45540;-63
2021/12/13 11:11:57;;;;;;;;;3.00;3.00;;;;;9.30;71.57;101959.63;5039681;28;45394;-62
2021/12/13 11:14:22;;;;;;;;;7.00;5.50;;;;;9.27;71.74;101959.78;5057659;28;45887;-63
2021/12/13 11:16:52;;;;;;;;;7.25;3.00;;;;;9.25;71.93;101971.31;5057525;28;45484;-63
2021/12/13 11:19:19;;;;;;;;;4.00;4.00;;;;;9.25;71.66;101964.28;5039739;28;45550;-61
2021/12/13 11:21:47;;;;;;;;;13.25;10.25;;;;;9.24;71.62;101953.91;5056966;28;45684;-62
2021/12/13 11:24:19;;;;;;;;;40.25;30.50;;;;;9.23;71.59;101960.91;5022544;28;45278;-63
2021/12/13 11:26:50;;;;;;;;;7.00;6.25;;;;;9.21;71.62;101954.91;5057218;28;45434;-63
2021/12/13 11:29:15;;;;;;;;;6.25;5.25;;;;;9.19;71.70;101967.28;5057401;28;45435;-62
2021/12/13 11:31:53;;;;;;;;;5.00;4.00;;;;;9.18;72.02;101962.97;5056950;28;50030;-63
2021/12/13 11:34:25;;;;;;;;;6.00;6.00;;;;;9.17;71.85;101961.28;5057356;28;45403;-62
2021/12/13 11:37:11;;;;;;;;;8.00;5.00;;;;;9.16;71.84;101963.06;5057431;28;45395;-63
2021/12/13 11:39:41;;;;;;;;;6.00;6.00;;;;;9.13;71.51;101959.78;5057315;28;45317;-63
2021/12/13 11:42:25;;;;;;;;;7.00;7.00;;;;;9.11;71.51;101961.63;5039192;28;45563;-63
2021/12/13 11:45:33;;;;;;;;;7.50;6.00;;;;;9.07;71.55;101961.00;5057151;28;45891;-62
2021/12/13 11:48:09;;;;;;;;;7.00;7.00;;;;;9.05;71.81;101958.44;5056969;28;45342;-62
2021/12/13 11:51:05;;;;;;;;;8.75;6.50;;;;;9.05;71.77;101960.25;5056913;28;45358;-62
2021/12/13 11:53:49;;;;;;;;;8.00;7.00;;;;;9.03;71.73;101962.94;5056900;28;45356;-62
2021/12/13 11:56:33;;;;;;;;;13.50;12.75;;;;;9.03;71.75;101951.63;5056781;28;45960;-62